Terminal Aerodrome Forecast
Issued by NWS

Home | Current Version | Previous Version | Text Only | Print | Product List | Glossary On
Versions: 1 2 3 4 5 6 7 8 9 10 11 12 13 14 15 16 17 18 19 20 21 22 23 24
352
FTUS45 KPSR 060226 AAA
TAFPHX
TAF AMD
KPHX 060226Z 0602/0624 26004KT P6SM SCT200 BKN250
     FM060300 11006KT P6SM SCT150 BKN200
     FM062100 26005KT P6SM SCT150 BKN250=

USA.gov is the U.S. government's official web portal to all federal, state and local government web resources and services.